sensor_id;sensor_type;location;lat;lon;timestamp;temperature;humidity
33023;DHT22;19390;51.460;5.710;2023-07-31T00:01:48;18.00;99.90
33023;DHT22;19390;51.460;5.710;2023-07-31T00:04:14;18.00;99.90
33023;DHT22;19390;51.460;5.710;2023-07-31T00:06:39;17.90;99.90
33023;DHT22;19390;51.460;5.710;2023-07-31T00:09:05;17.80;99.90
33023;DHT22;19390;51.460;5.710;2023-07-31T00:11:30;17.80;99.90
33023;DHT22;19390;51.460;5.710;2023-07-31T00:13:56;17.80;99.90
33023;DHT22;19390;51.460;5.710;2023-07-31T00:16:22;17.70;99.90
33023;DHT22;19390;51.460;5.710;2023-07-31T00:18:47;17.70;99.90
33023;DHT22;19390;51.460;5.710;2023-07-31T00:21:13;17.70;99.90
33023;DHT22;19390;51.460;5.710;2023-07-31T00:23:38;17.60;99.90
33023;DHT22;19390;51.460;5.710;2023-07-31T00:26:04;17.60;99.90
33023;DHT22;19390;51.460;5.710;2023-07-31T00:28:29;17.60;99.90
33023;DHT22;19390;51.460;5.710;2023-07-31T00:30:55;17.60;99.90
33023;DHT22;19390;51.460;5.710;2023-07-31T00:33:21;17.60;99.90
33023;DHT22;19390;51.460;5.710;2023-07-31T00:35:48;17.60;99.90
33023;DHT22;19390;51.460;5.710;2023-07-31T00:38:13;17.60;99.90
33023;DHT22;19390;51.460;5.710;2023-07-31T00:40:39;17.60;99.90
33023;DHT22;19390;51.460;5.710;2023-07-31T00:43:05;17.50;99.90
33023;DHT22;19390;51.460;5.710;2023-07-31T00:45:31;17.50;99.90
33023;DHT22;19390;51.460;5.710;2023-07-31T00:47:57;17.50;99.90
33023;DHT22;19390;51.460;5.710;2023-07-31T00:50:24;17.50;99.90
33023;DHT22;19390;51.460;5.710;2023-07-31T00:52:50;17.40;99.90
33023;DHT22;19390;51.460;5.710;2023-07-31T00:55:16;17.40;99.90
33023;DHT22;19390;51.460;5.710;2023-07-31T00:57:42;17.40;99.90
33023;DHT22;19390;51.460;5.710;2023-07-31T01:00:08;17.40;99.90
33023;DHT22;19390;51.460;5.710;2023-07-31T01:02:35;17.40;99.90
33023;DHT22;19390;51.460;5.710;2023-07-31T01:05:01;17.40;99.90
33023;DHT22;19390;51.460;5.710;2023-07-31T01:10:27;17.30;99.90
33023;DHT22;19390;51.460;5.710;2023-07-31T01:12:56;17.20;99.90
33023;DHT22;19390;51.460;5.710;2023-07-31T01:15:23;17.20;99.90
33023;DHT22;19390;51.460;5.710;2023-07-31T01:17:48;17.20;99.90
33023;DHT22;19390;51.460;5.710;2023-07-31T01:20:18;17.10;99.90
33023;DHT22;19390;51.460;5.710;2023-07-31T01:25:52;17.10;99.90
33023;DHT22;19390;51.460;5.710;2023-07-31T01:28:27;17.00;99.90
33023;DHT22;19390;51.460;5.710;2023-07-31T01:30:55;16.90;99.90
33023;DHT22;19390;51.460;5.710;2023-07-31T01:33:24;16.90;99.90
33023;DHT22;19390;51.460;5.710;2023-07-31T01:35:50;16.90;99.90
33023;DHT22;19390;51.460;5.710;2023-07-31T01:38:16;16.80;99.90
33023;DHT22;19390;51.460;5.710;2023-07-31T01:40:51;16.80;99.90
33023;DHT22;19390;51.460;5.710;2023-07-31T01:43:16;16.80;99.90
33023;DHT22;19390;51.460;5.710;2023-07-31T01:45:42;16.70;99.90
33023;DHT22;19390;51.460;5.710;2023-07-31T01:48:07;16.70;99.90
33023;DHT22;19390;51.460;5.710;2023-07-31T01:50:33;16.60;99.90
33023;DHT22;19390;51.460;5.710;2023-07-31T01:52:59;16.70;99.90
33023;DHT22;19390;51.460;5.710;2023-07-31T01:55:24;16.60;99.90
33023;DHT22;19390;51.460;5.710;2023-07-31T01:57:50;16.60;99.90
33023;DHT22;19390;51.460;5.710;2023-07-31T02:00:15;16.60;99.90
33023;DHT22;19390;51.460;5.710;2023-07-31T02:02:41;16.50;99.90
33023;DHT22;19390;51.460;5.710;2023-07-31T02:05:07;16.50;99.90
33023;DHT22;19390;51.460;5.710;2023-07-31T02:07:32;16.50;99.90
33023;DHT22;19390;51.460;5.710;2023-07-31T02:09:58;16.40;99.90
33023;DHT22;19390;51.460;5.710;2023-07-31T02:12:23;16.40;99.90
33023;DHT22;19390;51.460;5.710;2023-07-31T02:14:49;16.40;99.90
33023;DHT22;19390;51.460;5.710;2023-07-31T02:17:15;16.40;99.90
33023;DHT22;19390;51.460;5.710;2023-07-31T02:19:40;16.40;99.90
33023;DHT22;19390;51.460;5.710;2023-07-31T02:22:06;16.40;99.90
33023;DHT22;19390;51.460;5.710;2023-07-31T02:24:31;16.40;99.90
33023;DHT22;19390;51.460;5.710;2023-07-31T02:26:57;16.40;99.90
33023;DHT22;19390;51.460;5.710;2023-07-31T02:29:23;16.30;99.90
33023;DHT22;19390;51.460;5.710;2023-07-31T02:31:48;16.40;99.90
33023;DHT22;19390;51.460;5.710;2023-07-31T02:34:14;16.30;99.90
33023;DHT22;19390;51.460;5.710;2023-07-31T02:36:39;16.30;99.90
33023;DHT22;19390;51.460;5.710;2023-07-31T02:39:05;16.30;99.90
33023;DHT22;19390;51.460;5.710;2023-07-31T02:41:30;16.30;99.90
33023;DHT22;19390;51.460;5.710;2023-07-31T02:43:56;16.30;99.90
33023;DHT22;19390;51.460;5.710;2023-07-31T02:46:21;16.30;99.90
33023;DHT22;19390;51.460;5.710;2023-07-31T02:48:50;16.30;99.90
33023;DHT22;19390;51.460;5.710;2023-07-31T02:51:16;16.30;99.90
33023;DHT22;19390;51.460;5.710;2023-07-31T02:53:41;16.30;99.90
33023;DHT22;19390;51.460;5.710;2023-07-31T02:56:07;16.40;99.90
33023;DHT22;19390;51.460;5.710;2023-07-31T02:58:32;16.30;99.90
33023;DHT22;19390;51.460;5.710;2023-07-31T03:00:58;16.30;99.90
33023;DHT22;19390;51.460;5.710;2023-07-31T03:03:24;16.40;99.90
33023;DHT22;19390;51.460;5.710;2023-07-31T03:05:50;16.40;99.90
33023;DHT22;19390;51.460;5.710;2023-07-31T03:08:15;16.40;99.90
33023;DHT22;19390;51.460;5.710;2023-07-31T03:10:41;16.40;99.90
33023;DHT22;19390;51.460;5.710;2023-07-31T03:13:06;16.40;99.90
33023;DHT22;19390;51.460;5.710;2023-07-31T03:15:32;16.40;99.90
33023;DHT22;19390;51.460;5.710;2023-07-31T03:17:58;16.50;99.90
33023;DHT22;19390;51.460;5.710;2023-07-31T03:20:23;16.50;99.90
33023;DHT22;19390;51.460;5.710;2023-07-31T03:22:49;16.50;99.90
33023;DHT22;19390;51.460;5.710;2023-07-31T03:25:15;16.50;99.90
33023;DHT22;19390;51.460;5.710;2023-07-31T03:27:40;16.50;99.90
33023;DHT22;19390;51.460;5.710;2023-07-31T03:30:06;16.50;99.90
33023;DHT22;19390;51.460;5.710;2023-07-31T03:32:32;16.50;99.90
33023;DHT22;19390;51.460;5.710;2023-07-31T03:34:58;16.60;99.90
33023;DHT22;19390;51.460;5.710;2023-07-31T03:37:24;16.60;99.90
33023;DHT22;19390;51.460;5.710;2023-07-31T03:39:50;16.60;99.90
33023;DHT22;19390;51.460;5.710;2023-07-31T03:42:15;16.60;99.90
33023;DHT22;19390;51.460;5.710;2023-07-31T03:44:41;16.60;99.90
33023;DHT22;19390;51.460;5.710;2023-07-31T03:47:06;16.60;99.90
33023;DHT22;19390;51.460;5.710;2023-07-31T03:49:32;16.70;99.90
33023;DHT22;19390;51.460;5.710;2023-07-31T03:51:57;16.70;99.90
33023;DHT22;19390;51.460;5.710;2023-07-31T03:54:23;16.70;99.90
33023;DHT22;19390;51.460;5.710;2023-07-31T03:56:49;16.70;99.90
33023;DHT22;19390;51.460;5.710;2023-07-31T03:59:14;16.60;99.90
33023;DHT22;19390;51.460;5.710;2023-07-31T04:01:40;16.70;99.90
33023;DHT22;19390;51.460;5.710;2023-07-31T04:04:05;16.60;99.90
33023;DHT22;19390;51.460;5.710;2023-07-31T04:06:31;16.70;99.90
33023;DHT22;19390;51.460;5.710;2023-07-31T04:08:57;16.80;99.90
33023;DHT22;19390;51.460;5.710;2023-07-31T04:11:22;16.80;99.90
33023;DHT22;19390;51.460;5.710;2023-07-31T04:13:48;16.80;99.90
33023;DHT22;19390;51.460;5.710;2023-07-31T04:16:14;16.90;99.90
33023;DHT22;19390;51.460;5.710;2023-07-31T04:18:39;16.90;99.90
33023;DHT22;19390;51.460;5.710;2023-07-31T04:21:05;16.90;99.90
33023;DHT22;19390;51.460;5.710;2023-07-31T04:23:31;16.90;99.90
33023;DHT22;19390;51.460;5.710;2023-07-31T04:25:56;16.90;99.90
33023;DHT22;19390;51.460;5.710;2023-07-31T04:28:22;17.00;99.90
33023;DHT22;19390;51.460;5.710;2023-07-31T04:30:47;17.00;99.90
33023;DHT22;19390;51.460;5.710;2023-07-31T04:33:13;17.00;99.90
33023;DHT22;19390;51.460;5.710;2023-07-31T04:35:39;17.00;99.90
33023;DHT22;19390;51.460;5.710;2023-07-31T04:38:04;17.00;99.90
33023;DHT22;19390;51.460;5.710;2023-07-31T04:40:30;17.00;99.90
33023;DHT22;19390;51.460;5.710;2023-07-31T04:42:55;17.10;99.90
33023;DHT22;19390;51.460;5.710;2023-07-31T04:45:21;17.10;99.90
33023;DHT22;19390;51.460;5.710;2023-07-31T04:47:47;17.10;99.90
33023;DHT22;19390;51.460;5.710;2023-07-31T04:50:12;17.10;99.90
33023;DHT22;19390;51.460;5.710;2023-07-31T04:52:38;17.10;99.90
33023;DHT22;19390;51.460;5.710;2023-07-31T04:55:03;17.10;99.90
33023;DHT22;19390;51.460;5.710;2023-07-31T04:57:29;17.10;99.90
33023;DHT22;19390;51.460;5.710;2023-07-31T04:59:55;17.20;99.90
33023;DHT22;19390;51.460;5.710;2023-07-31T05:02:20;17.20;99.90
33023;DHT22;19390;51.460;5.710;2023-07-31T05:04:46;17.20;99.90
33023;DHT22;19390;51.460;5.710;2023-07-31T05:07:11;17.20;99.90
33023;DHT22;19390;51.460;5.710;2023-07-31T05:09:37;17.20;99.90
33023;DHT22;19390;51.460;5.710;2023-07-31T05:12:05;17.20;99.90
33023;DHT22;19390;51.460;5.710;2023-07-31T05:14:31;17.20;99.90
33023;DHT22;19390;51.460;5.710;2023-07-31T05:16:56;17.20;99.90
33023;DHT22;19390;51.460;5.710;2023-07-31T05:19:22;17.20;99.90
33023;DHT22;19390;51.460;5.710;2023-07-31T05:21:48;17.20;99.90
33023;DHT22;19390;51.460;5.710;2023-07-31T05:24:13;17.20;99.90
33023;DHT22;19390;51.460;5.710;2023-07-31T05:26:39;17.20;99.90
33023;DHT22;19390;51.460;5.710;2023-07-31T05:29:04;17.20;99.90
33023;DHT22;19390;51.460;5.710;2023-07-31T05:31:30;17.30;99.90
33023;DHT22;19390;51.460;5.710;2023-07-31T05:33:57;17.20;99.90
33023;DHT22;19390;51.460;5.710;2023-07-31T05:36:23;17.20;99.90
33023;DHT22;19390;51.460;5.710;2023-07-31T05:38:48;17.30;99.90
33023;DHT22;19390;51.460;5.710;2023-07-31T05:41:14;17.30;99.90
33023;DHT22;19390;51.460;5.710;2023-07-31T05:43:40;17.30;99.90
33023;DHT22;19390;51.460;5.710;2023-07-31T05:46:06;17.30;99.90
33023;DHT22;19390;51.460;5.710;2023-07-31T05:48:32;17.30;99.90
33023;DHT22;19390;51.460;5.710;2023-07-31T05:50:59;17.30;99.90
33023;DHT22;19390;51.460;5.710;2023-07-31T05:53:25;17.40;99.90
33023;DHT22;19390;51.460;5.710;2023-07-31T05:55:51;17.40;99.90
33023;DHT22;19390;51.460;5.710;2023-07-31T05:58:16;17.40;99.90
33023;DHT22;19390;51.460;5.710;2023-07-31T06:00:42;17.40;99.90
33023;DHT22;19390;51.460;5.710;2023-07-31T06:03:07;17.40;99.90
33023;DHT22;19390;51.460;5.710;2023-07-31T06:05:33;17.50;99.90
33023;DHT22;19390;51.460;5.710;2023-07-31T06:07:59;17.60;99.90
33023;DHT22;19390;51.460;5.710;2023-07-31T06:10:27;17.70;99.90
33023;DHT22;19390;51.460;5.710;2023-07-31T06:23:08;18.10;99.90
33023;DHT22;19390;51.460;5.710;2023-07-31T06:25:33;18.10;99.90
33023;DHT22;19390;51.460;5.710;2023-07-31T06:27:59;18.20;99.90
33023;DHT22;19390;51.460;5.710;2023-07-31T06:30:24;18.10;99.90
33023;DHT22;19390;51.460;5.710;2023-07-31T06:32:50;18.10;99.90
33023;DHT22;19390;51.460;5.710;2023-07-31T06:35:15;18.10;99.90
33023;DHT22;19390;51.460;5.710;2023-07-31T06:37:41;18.20;99.90
33023;DHT22;19390;51.460;5.710;2023-07-31T06:40:09;18.30;99.90
33023;DHT22;19390;51.460;5.710;2023-07-31T06:42:36;18.30;99.90
33023;DHT22;19390;51.460;5.710;2023-07-31T06:45:02;18.30;99.90
33023;DHT22;19390;51.460;5.710;2023-07-31T06:47:28;18.40;99.90
33023;DHT22;19390;51.460;5.710;2023-07-31T06:49:53;18.50;99.90
33023;DHT22;19390;51.460;5.710;2023-07-31T06:52:19;18.60;99.90
33023;DHT22;19390;51.460;5.710;2023-07-31T06:55:04;18.70;99.90
33023;DHT22;19390;51.460;5.710;2023-07-31T06:57:41;18.70;99.90
33023;DHT22;19390;51.460;5.710;2023-07-31T07:00:08;18.70;99.90
33023;DHT22;19390;51.460;5.710;2023-07-31T07:02:33;18.80;99.90
33023;DHT22;19390;51.460;5.710;2023-07-31T07:04:59;18.90;99.90
33023;DHT22;19390;51.460;5.710;2023-07-31T07:07:25;18.80;99.90
33023;DHT22;19390;51.460;5.710;2023-07-31T07:09:50;18.70;99.90
33023;DHT22;19390;51.460;5.710;2023-07-31T07:12:16;18.70;99.90
33023;DHT22;19390;51.460;5.710;2023-07-31T07:14:41;18.60;99.90
33023;DHT22;19390;51.460;5.710;2023-07-31T07:17:07;18.70;99.90
33023;DHT22;19390;51.460;5.710;2023-07-31T07:19:33;18.80;99.90
33023;DHT22;19390;51.460;5.710;2023-07-31T07:21:58;18.90;99.90
33023;DHT22;19390;51.460;5.710;2023-07-31T07:24:27;18.90;99.90
33023;DHT22;19390;51.460;5.710;2023-07-31T07:26:53;19.00;99.90
33023;DHT22;19390;51.460;5.710;2023-07-31T07:29:18;19.10;99.90
33023;DHT22;19390;51.460;5.710;2023-07-31T07:31:44;18.80;99.90
33023;DHT22;19390;51.460;5.710;2023-07-31T07:34:09;18.60;99.90
33023;DHT22;19390;51.460;5.710;2023-07-31T07:36:35;18.50;99.90
33023;DHT22;19390;51.460;5.710;2023-07-31T07:39:00;18.60;99.90
33023;DHT22;19390;51.460;5.710;2023-07-31T07:41:26;18.60;99.90
33023;DHT22;19390;51.460;5.710;2023-07-31T07:43:51;18.70;99.90
33023;DHT22;19390;51.460;5.710;2023-07-31T07:46:17;18.80;99.90
33023;DHT22;19390;51.460;5.710;2023-07-31T07:48:43;18.80;99.90
33023;DHT22;19390;51.460;5.710;2023-07-31T07:51:08;18.80;99.90
33023;DHT22;19390;51.460;5.710;2023-07-31T07:53:34;18.50;99.90
33023;DHT22;19390;51.460;5.710;2023-07-31T07:55:59;18.30;99.90
33023;DHT22;19390;51.460;5.710;2023-07-31T07:58:25;18.30;99.90
33023;DHT22;19390;51.460;5.710;2023-07-31T08:00:51;18.40;99.90
33023;DHT22;19390;51.460;5.710;2023-07-31T08:03:17;18.50;99.90
33023;DHT22;19390;51.460;5.710;2023-07-31T08:05:44;18.60;99.90
33023;DHT22;19390;51.460;5.710;2023-07-31T08:08:14;18.50;99.90
33023;DHT22;19390;51.460;5.710;2023-07-31T08:10:40;18.50;99.90
33023;DHT22;19390;51.460;5.710;2023-07-31T08:13:06;18.30;99.90
33023;DHT22;19390;51.460;5.710;2023-07-31T08:15:31;18.40;99.90
33023;DHT22;19390;51.460;5.710;2023-07-31T08:17:57;18.20;99.90
33023;DHT22;19390;51.460;5.710;2023-07-31T08:20:22;18.30;99.90
33023;DHT22;19390;51.460;5.710;2023-07-31T08:22:48;18.30;99.90
33023;DHT22;19390;51.460;5.710;2023-07-31T08:25:14;18.40;99.90
33023;DHT22;19390;51.460;5.710;2023-07-31T08:27:43;18.50;99.90
33023;DHT22;19390;51.460;5.710;2023-07-31T08:30:09;18.50;99.90
33023;DHT22;19390;51.460;5.710;2023-07-31T08:32:35;18.60;99.90
33023;DHT22;19390;51.460;5.710;2023-07-31T08:35:00;18.30;99.90
33023;DHT22;19390;51.460;5.710;2023-07-31T08:37:26;18.20;99.90
33023;DHT22;19390;51.460;5.710;2023-07-31T08:39:51;18.20;99.90
33023;DHT22;19390;51.460;5.710;2023-07-31T08:42:17;18.30;99.90
33023;DHT22;19390;51.460;5.710;2023-07-31T08:44:43;18.40;99.90
33023;DHT22;19390;51.460;5.710;2023-07-31T08:47:09;18.40;99.90
33023;DHT22;19390;51.460;5.710;2023-07-31T08:49:37;18.40;99.90
33023;DHT22;19390;51.460;5.710;2023-07-31T08:52:04;18.40;99.90
33023;DHT22;19390;51.460;5.710;2023-07-31T08:54:30;18.20;99.90
33023;DHT22;19390;51.460;5.710;2023-07-31T08:56:58;18.30;99.90
33023;DHT22;19390;51.460;5.710;2023-07-31T08:59:27;18.30;99.90
33023;DHT22;19390;51.460;5.710;2023-07-31T09:01:55;18.10;99.90
33023;DHT22;19390;51.460;5.710;2023-07-31T09:04:22;18.30;99.90
33023;DHT22;19390;51.460;5.710;2023-07-31T09:06:48;18.30;99.90
33023;DHT22;19390;51.460;5.710;2023-07-31T09:09:14;18.20;99.90
33023;DHT22;19390;51.460;5.710;2023-07-31T09:11:40;18.30;99.90
33023;DHT22;19390;51.460;5.710;2023-07-31T09:14:07;18.30;99.90
33023;DHT22;19390;51.460;5.710;2023-07-31T09:16:34;18.30;99.90
33023;DHT22;19390;51.460;5.710;2023-07-31T09:19:00;18.20;99.90
33023;DHT22;19390;51.460;5.710;2023-07-31T09:21:28;18.10;99.90
33023;DHT22;19390;51.460;5.710;2023-07-31T09:23:54;18.20;99.90
33023;DHT22;19390;51.460;5.710;2023-07-31T09:26:34;18.20;99.90
33023;DHT22;19390;51.460;5.710;2023-07-31T09:29:01;18.20;99.90
33023;DHT22;19390;51.460;5.710;2023-07-31T09:31:42;18.30;99.90
33023;DHT22;19390;51.460;5.710;2023-07-31T09:34:08;18.10;99.90
33023;DHT22;19390;51.460;5.710;2023-07-31T09:36:40;18.20;99.90
33023;DHT22;19390;51.460;5.710;2023-07-31T09:39:09;18.20;99.90
33023;DHT22;19390;51.460;5.710;2023-07-31T09:41:39;18.10;99.90
33023;DHT22;19390;51.460;5.710;2023-07-31T09:44:05;18.20;99.90
33023;DHT22;19390;51.460;5.710;2023-07-31T09:46:33;18.30;99.90
33023;DHT22;19390;51.460;5.710;2023-07-31T09:49:09;18.30;99.90
33023;DHT22;19390;51.460;5.710;2023-07-31T09:51:40;18.30;99.90
33023;DHT22;19390;51.460;5.710;2023-07-31T09:56:38;18.30;99.90
33023;DHT22;19390;51.460;5.710;2023-07-31T09:59:08;18.30;99.90
33023;DHT22;19390;51.460;5.710;2023-07-31T10:01:36;18.50;99.90
33023;DHT22;19390;51.460;5.710;2023-07-31T10:04:01;18.50;99.90
33023;DHT22;19390;51.460;5.710;2023-07-31T10:06:28;18.50;99.90
33023;DHT22;19390;51.460;5.710;2023-07-31T10:08:54;18.40;99.90
33023;DHT22;19390;51.460;5.710;2023-07-31T10:11:22;18.50;99.90
33023;DHT22;19390;51.460;5.710;2023-07-31T10:13:50;18.50;99.90
33023;DHT22;19390;51.460;5.710;2023-07-31T10:16:17;18.30;99.90
33023;DHT22;19390;51.460;5.710;2023-07-31T10:18:44;18.30;99.90
33023;DHT22;19390;51.460;5.710;2023-07-31T10:21:11;18.30;99.90
33023;DHT22;19390;51.460;5.710;2023-07-31T10:23:36;18.30;99.90
33023;DHT22;19390;51.460;5.710;2023-07-31T10:26:04;18.50;99.90
33023;DHT22;19390;51.460;5.710;2023-07-31T10:28:33;18.50;99.90
33023;DHT22;19390;51.460;5.710;2023-07-31T10:31:01;18.60;99.90
33023;DHT22;19390;51.460;5.710;2023-07-31T10:33:27;18.70;99.90
33023;DHT22;19390;51.460;5.710;2023-07-31T10:36:18;18.70;99.90
33023;DHT22;19390;51.460;5.710;2023-07-31T10:38:45;18.40;99.90
33023;DHT22;19390;51.460;5.710;2023-07-31T10:41:11;18.60;99.90
33023;DHT22;19390;51.460;5.710;2023-07-31T10:43:39;18.40;99.90
33023;DHT22;19390;51.460;5.710;2023-07-31T10:46:12;18.50;99.90
33023;DHT22;19390;51.460;5.710;2023-07-31T10:48:39;18.70;99.90
33023;DHT22;19390;51.460;5.710;2023-07-31T10:51:08;18.80;99.90
33023;DHT22;19390;51.460;5.710;2023-07-31T10:53:35;18.60;99.90
33023;DHT22;19390;51.460;5.710;2023-07-31T10:56:09;18.50;99.90
33023;DHT22;19390;51.460;5.710;2023-07-31T10:58:36;18.40;99.90
33023;DHT22;19390;51.460;5.710;2023-07-31T11:01:04;18.50;99.90
33023;DHT22;19390;51.460;5.710;2023-07-31T11:03:47;18.80;99.90
33023;DHT22;19390;51.460;5.710;2023-07-31T11:06:15;18.90;99.90
33023;DHT22;19390;51.460;5.710;2023-07-31T11:08:48;18.80;99.90
33023;DHT22;19390;51.460;5.710;2023-07-31T11:11:18;18.90;99.90
33023;DHT22;19390;51.460;5.710;2023-07-31T11:13:48;18.80;99.90
33023;DHT22;19390;51.460;5.710;2023-07-31T11:16:24;19.00;99.90
33023;DHT22;19390;51.460;5.710;2023-07-31T11:18:51;19.30;99.90
33023;DHT22;19390;51.460;5.710;2023-07-31T11:21:21;19.60;99.90
33023;DHT22;19390;51.460;5.710;2023-07-31T11:23:56;19.80;99.90
33023;DHT22;19390;51.460;5.710;2023-07-31T11:26:23;20.70;99.90
33023;DHT22;19390;51.460;5.710;2023-07-31T11:28:50;20.00;99.90
33023;DHT22;19390;51.460;5.710;2023-07-31T11:31:16;19.80;99.90
33023;DHT22;19390;51.460;5.710;2023-07-31T11:33:42;20.50;99.90
33023;DHT22;19390;51.460;5.710;2023-07-31T11:36:17;19.90;99.90
33023;DHT22;19390;51.460;5.710;2023-07-31T11:38:43;19.90;99.90
33023;DHT22;19390;51.460;5.710;2023-07-31T11:41:08;19.50;99.90
33023;DHT22;19390;51.460;5.710;2023-07-31T11:43:34;20.10;99.90
33023;DHT22;19390;51.460;5.710;2023-07-31T11:46:02;20.30;99.90
33023;DHT22;19390;51.460;5.710;2023-07-31T11:48:30;19.90;99.90
33023;DHT22;19390;51.460;5.710;2023-07-31T11:51:08;19.80;99.90
33023;DHT22;19390;51.460;5.710;2023-07-31T11:53:44;19.60;99.90
33023;DHT22;19390;51.460;5.710;2023-07-31T11:56:13;19.20;99.90
33023;DHT22;19390;51.460;5.710;2023-07-31T11:58:41;19.10;99.90
33023;DHT22;19390;51.460;5.710;2023-07-31T12:01:08;18.90;99.90
33023;DHT22;19390;51.460;5.710;2023-07-31T12:03:34;18.90;99.90
33023;DHT22;19390;51.460;5.710;2023-07-31T12:06:00;18.70;99.90
33023;DHT22;19390;51.460;5.710;2023-07-31T12:08:26;18.90;99.90
33023;DHT22;19390;51.460;5.710;2023-07-31T12:10:53;19.10;99.90
33023;DHT22;19390;51.460;5.710;2023-07-31T12:13:23;19.20;99.90
33023;DHT22;19390;51.460;5.710;2023-07-31T12:15:54;19.10;99.90
33023;DHT22;19390;51.460;5.710;2023-07-31T12:18:22;18.90;99.90
33023;DHT22;19390;51.460;5.710;2023-07-31T12:20:58;19.00;99.90
33023;DHT22;19390;51.460;5.710;2023-07-31T12:23:29;19.20;99.90
33023;DHT22;19390;51.460;5.710;2023-07-31T12:28:35;18.80;99.90
33023;DHT22;19390;51.460;5.710;2023-07-31T12:31:02;19.10;99.90
33023;DHT22;19390;51.460;5.710;2023-07-31T12:33:32;19.30;99.90
33023;DHT22;19390;51.460;5.710;2023-07-31T12:36:00;19.50;99.90
33023;DHT22;19390;51.460;5.710;2023-07-31T12:38:26;19.20;99.90
33023;DHT22;19390;51.460;5.710;2023-07-31T12:40:51;19.20;99.90
33023;DHT22;19390;51.460;5.710;2023-07-31T12:43:17;19.10;99.90
33023;DHT22;19390;51.460;5.710;2023-07-31T12:45:42;19.10;99.90
33023;DHT22;19390;51.460;5.710;2023-07-31T12:48:08;19.10;99.90
33023;DHT22;19390;51.460;5.710;2023-07-31T12:50:34;19.20;99.90
33023;DHT22;19390;51.460;5.710;2023-07-31T12:53:02;19.30;99.90
33023;DHT22;19390;51.460;5.710;2023-07-31T12:55:28;19.20;99.90
33023;DHT22;19390;51.460;5.710;2023-07-31T12:57:55;19.10;99.90
33023;DHT22;19390;51.460;5.710;2023-07-31T13:00:21;19.20;99.90
33023;DHT22;19390;51.460;5.710;2023-07-31T13:02:47;19.30;99.90
33023;DHT22;19390;51.460;5.710;2023-07-31T13:05:13;19.30;99.90
33023;DHT22;19390;51.460;5.710;2023-07-31T13:07:39;19.40;99.90
33023;DHT22;19390;51.460;5.710;2023-07-31T13:10:06;19.40;99.90
33023;DHT22;19390;51.460;5.710;2023-07-31T13:12:32;19.40;99.90
33023;DHT22;19390;51.460;5.710;2023-07-31T13:14:57;19.40;99.90
33023;DHT22;19390;51.460;5.710;2023-07-31T13:17:23;19.50;99.90
33023;DHT22;19390;51.460;5.710;2023-07-31T13:19:49;19.40;99.90
33023;DHT22;19390;51.460;5.710;2023-07-31T13:22:15;19.50;99.90
33023;DHT22;19390;51.460;5.710;2023-07-31T13:24:41;19.50;99.90
33023;DHT22;19390;51.460;5.710;2023-07-31T13:27:06;19.50;99.90
33023;DHT22;19390;51.460;5.710;2023-07-31T13:29:32;19.60;99.90
33023;DHT22;19390;51.460;5.710;2023-07-31T13:31:58;19.60;99.90
33023;DHT22;19390;51.460;5.710;2023-07-31T13:34:23;19.50;99.90
33023;DHT22;19390;51.460;5.710;2023-07-31T13:36:49;19.50;99.90
33023;DHT22;19390;51.460;5.710;2023-07-31T13:39:15;19.50;99.90
33023;DHT22;19390;51.460;5.710;2023-07-31T13:41:40;19.60;99.90
33023;DHT22;19390;51.460;5.710;2023-07-31T13:44:06;19.70;99.90
33023;DHT22;19390;51.460;5.710;2023-07-31T13:46:32;19.70;99.90
33023;DHT22;19390;51.460;5.710;2023-07-31T13:48:58;19.80;99.90
33023;DHT22;19390;51.460;5.710;2023-07-31T13:51:25;19.70;99.90
33023;DHT22;19390;51.460;5.710;2023-07-31T13:53:50;19.50;99.90
33023;DHT22;19390;51.460;5.710;2023-07-31T13:56:16;19.40;99.90
33023;DHT22;19390;51.460;5.710;2023-07-31T13:58:42;19.40;99.90
33023;DHT22;19390;51.460;5.710;2023-07-31T14:01:07;19.40;99.90
33023;DHT22;19390;51.460;5.710;2023-07-31T14:03:33;19.30;99.90
33023;DHT22;19390;51.460;5.710;2023-07-31T14:05:58;19.40;99.90
33023;DHT22;19390;51.460;5.710;2023-07-31T14:08:24;19.20;99.90
33023;DHT22;19390;51.460;5.710;2023-07-31T14:10:50;19.40;99.90
33023;DHT22;19390;51.460;5.710;2023-07-31T14:13:15;18.90;99.90
33023;DHT22;19390;51.460;5.710;2023-07-31T14:15:42;19.10;99.90
33023;DHT22;19390;51.460;5.710;2023-07-31T14:18:08;19.10;99.90
33023;DHT22;19390;51.460;5.710;2023-07-31T14:20:34;18.90;99.90
33023;DHT22;19390;51.460;5.710;2023-07-31T14:23:00;19.00;99.90
33023;DHT22;19390;51.460;5.710;2023-07-31T14:25:25;19.00;99.90
33023;DHT22;19390;51.460;5.710;2023-07-31T14:27:51;19.00;99.90
33023;DHT22;19390;51.460;5.710;2023-07-31T14:30:16;19.10;99.90
33023;DHT22;19390;51.460;5.710;2023-07-31T14:32:43;19.10;99.90
33023;DHT22;19390;51.460;5.710;2023-07-31T14:35:09;19.10;99.90
33023;DHT22;19390;51.460;5.710;2023-07-31T14:37:42;19.20;99.90
33023;DHT22;19390;51.460;5.710;2023-07-31T14:40:09;19.10;99.90
33023;DHT22;19390;51.460;5.710;2023-07-31T14:42:36;19.20;99.90
33023;DHT22;19390;51.460;5.710;2023-07-31T14:45:02;19.20;99.90
33023;DHT22;19390;51.460;5.710;2023-07-31T14:47:28;19.20;99.90
33023;DHT22;19390;51.460;5.710;2023-07-31T14:49:54;19.20;99.90
33023;DHT22;19390;51.460;5.710;2023-07-31T14:52:19;19.10;99.90
33023;DHT22;19390;51.460;5.710;2023-07-31T14:54:45;19.10;99.90
33023;DHT22;19390;51.460;5.710;2023-07-31T14:57:11;19.00;99.90
33023;DHT22;19390;51.460;5.710;2023-07-31T14:59:36;19.10;99.90
33023;DHT22;19390;51.460;5.710;2023-07-31T15:02:02;19.10;99.90
33023;DHT22;19390;51.460;5.710;2023-07-31T15:04:28;19.20;99.90
33023;DHT22;19390;51.460;5.710;2023-07-31T15:06:54;19.10;99.90
33023;DHT22;19390;51.460;5.710;2023-07-31T15:09:20;19.00;99.90
33023;DHT22;19390;51.460;5.710;2023-07-31T15:11:45;19.20;99.90
33023;DHT22;19390;51.460;5.710;2023-07-31T15:14:11;19.10;99.90
33023;DHT22;19390;51.460;5.710;2023-07-31T15:16:36;19.10;99.90
33023;DHT22;19390;51.460;5.710;2023-07-31T15:19:02;19.30;99.90
33023;DHT22;19390;51.460;5.710;2023-07-31T15:21:28;19.10;99.90
33023;DHT22;19390;51.460;5.710;2023-07-31T15:23:53;19.00;99.90
33023;DHT22;19390;51.460;5.710;2023-07-31T15:26:19;19.20;99.90
33023;DHT22;19390;51.460;5.710;2023-07-31T15:28:50;19.10;99.90
33023;DHT22;19390;51.460;5.710;2023-07-31T15:31:20;19.00;99.90
33023;DHT22;19390;51.460;5.710;2023-07-31T15:33:47;19.00;99.90
33023;DHT22;19390;51.460;5.710;2023-07-31T15:36:13;19.10;99.90
33023;DHT22;19390;51.460;5.710;2023-07-31T15:38:39;19.00;99.90
33023;DHT22;19390;51.460;5.710;2023-07-31T15:41:05;19.20;99.90
33023;DHT22;19390;51.460;5.710;2023-07-31T15:43:31;19.30;99.90
33023;DHT22;19390;51.460;5.710;2023-07-31T15:45:57;19.30;99.90
33023;DHT22;19390;51.460;5.710;2023-07-31T15:48:23;19.30;99.90